sensor_id;sensor_type;location;lat;lon;timestamp;pressure;altitude;pressure_sealevel;temperature;humidity
6200;BME280;3133;43.214;27.906;2023-08-17T00:02:13;100543.28;;;25.76;100.00
6200;BME280;3133;43.214;27.906;2023-08-17T00:04:41;100548.53;;;25.78;100.00
6200;BME280;3133;43.214;27.906;2023-08-17T00:07:08;100538.88;;;25.75;100.00
6200;BME280;3133;43.214;27.906;2023-08-17T00:09:35;100546.41;;;25.69;100.00
6200;BME280;3133;43.214;27.906;2023-08-17T00:12:02;100550.72;;;25.71;100.00
6200;BME280;3133;43.214;27.906;2023-08-17T00:14:29;100538.13;;;25.59;100.00
6200;BME280;3133;43.214;27.906;2023-08-17T00:16:56;100546.69;;;25.64;100.00
6200;BME280;3133;43.214;27.906;2023-08-17T00:19:23;100538.59;;;25.66;100.00
6200;BME280;3133;43.214;27.906;2023-08-17T00:21:51;100543.75;;;25.69;100.00
6200;BME280;3133;43.214;27.906;2023-08-17T00:24:18;100541.94;;;25.69;100.00
6200;BME280;3133;43.214;27.906;2023-08-17T00:26:45;100529.22;;;25.73;100.00
6200;BME280;3133;43.214;27.906;2023-08-17T00:29:12;100541.91;;;25.83;100.00
6200;BME280;3133;43.214;27.906;2023-08-17T00:31:40;100553.41;;;25.85;100.00
6200;BME280;3133;43.214;27.906;2023-08-17T00:34:07;100559.59;;;25.86;100.00
6200;BME280;3133;43.214;27.906;2023-08-17T00:36:34;100552.44;;;25.86;100.00
6200;BME280;3133;43.214;27.906;2023-08-17T00:39:02;100541.47;;;25.77;100.00
6200;BME280;3133;43.214;27.906;2023-08-17T00:41:29;100549.19;;;25.81;100.00
6200;BME280;3133;43.214;27.906;2023-08-17T00:43:56;100543.28;;;25.76;100.00
6200;BME280;3133;43.214;27.906;2023-08-17T00:46:23;100553.69;;;25.81;100.00
6200;BME280;3133;43.214;27.906;2023-08-17T00:48:51;100550.03;;;25.82;100.00
6200;BME280;3133;43.214;27.906;2023-08-17T00:51:17;100505.19;;;25.59;100.00
6200;BME280;3133;43.214;27.906;2023-08-17T00:53:47;100548.69;;;25.75;100.00
6200;BME280;3133;43.214;27.906;2023-08-17T00:56:15;100545.09;;;25.76;100.00
6200;BME280;3133;43.214;27.906;2023-08-17T00:58:42;100551.00;;;25.81;100.00
6200;BME280;3133;43.214;27.906;2023-08-17T01:01:09;100552.94;;;25.79;100.00
6200;BME280;3133;43.214;27.906;2023-08-17T01:03:37;100509.38;;;25.63;100.00
6200;BME280;3133;43.214;27.906;2023-08-17T01:06:04;100543.06;;;25.79;100.00
6200;BME280;3133;43.214;27.906;2023-08-17T01:08:31;100529.44;;;25.70;100.00
6200;BME280;3133;43.214;27.906;2023-08-17T01:11:04;100546.44;;;25.83;100.00
6200;BME280;3133;43.214;27.906;2023-08-17T01:13:38;100542.50;;;25.74;100.00
6200;BME280;3133;43.214;27.906;2023-08-17T01:16:09;100545.25;;;25.73;100.00
6200;BME280;3133;43.214;27.906;2023-08-17T01:18:40;100538.59;;;25.66;100.00
6200;BME280;3133;43.214;27.906;2023-08-17T01:21:10;100539.66;;;25.63;100.00
6200;BME280;3133;43.214;27.906;2023-08-17T01:23:39;100536.88;;;25.65;100.00
6200;BME280;3133;43.214;27.906;2023-08-17T01:26:06;100536.38;;;25.58;100.00
6200;BME280;3133;43.214;27.906;2023-08-17T01:28:32;100520.16;;;25.47;100.00
6200;BME280;3133;43.214;27.906;2023-08-17T01:31:03;100525.16;;;25.53;100.00
6200;BME280;3133;43.214;27.906;2023-08-17T01:33:35;100499.63;;;25.34;100.00
6200;BME280;3133;43.214;27.906;2023-08-17T01:36:07;100503.81;;;25.38;100.00
6200;BME280;3133;43.214;27.906;2023-08-17T01:38:40;100512.34;;;25.44;100.00
6200;BME280;3133;43.214;27.906;2023-08-17T01:41:09;100516.19;;;25.39;100.00
6200;BME280;3133;43.214;27.906;2023-08-17T01:43:38;100449.34;;;25.12;100.00
6200;BME280;3133;43.214;27.906;2023-08-17T01:46:06;100512.41;;;25.43;100.00
6200;BME280;3133;43.214;27.906;2023-08-17T01:48:33;100483.19;;;25.26;100.00
6200;BME280;3133;43.214;27.906;2023-08-17T01:51:00;100497.88;;;25.33;100.00
6200;BME280;3133;43.214;27.906;2023-08-17T01:53:27;100503.22;;;25.33;100.00
6200;BME280;3133;43.214;27.906;2023-08-17T01:55:55;100519.31;;;25.47;100.00
6200;BME280;3133;43.214;27.906;2023-08-17T01:58:22;100494.00;;;25.38;100.00
6200;BME280;3133;43.214;27.906;2023-08-17T02:00:49;100514.47;;;25.53;100.00
6200;BME280;3133;43.214;27.906;2023-08-17T02:03:16;100516.06;;;25.56;100.00
6200;BME280;3133;43.214;27.906;2023-08-17T02:05:44;100485.63;;;25.44;100.00
6200;BME280;3133;43.214;27.906;2023-08-17T02:08:11;100516.75;;;25.59;100.00
6200;BME280;3133;43.214;27.906;2023-08-17T02:10:38;100501.00;;;25.55;100.00
6200;BME280;3133;43.214;27.906;2023-08-17T02:13:07;100489.72;;;25.50;100.00
6200;BME280;3133;43.214;27.906;2023-08-17T02:15:38;100511.28;;;25.61;100.00
6200;BME280;3133;43.214;27.906;2023-08-17T02:18:05;100517.28;;;25.64;100.00
6200;BME280;3133;43.214;27.906;2023-08-17T02:20:32;100498.50;;;25.52;100.00
6200;BME280;3133;43.214;27.906;2023-08-17T02:22:58;100497.34;;;25.56;100.00
6200;BME280;3133;43.214;27.906;2023-08-17T02:25:25;100510.16;;;25.65;100.00
6200;BME280;3133;43.214;27.906;2023-08-17T02:27:59;100496.19;;;25.60;100.00
6200;BME280;3133;43.214;27.906;2023-08-17T02:30:27;100436.25;;;25.22;100.00
6200;BME280;3133;43.214;27.906;2023-08-17T02:32:54;100506.81;;;25.61;100.00
6200;BME280;3133;43.214;27.906;2023-08-17T02:35:21;100514.16;;;25.58;100.00
6200;BME280;3133;43.214;27.906;2023-08-17T02:37:48;100491.91;;;25.43;100.00
6200;BME280;3133;43.214;27.906;2023-08-17T02:40:15;100441.13;;;25.15;100.00
6200;BME280;3133;43.214;27.906;2023-08-17T02:42:42;100509.94;;;25.54;100.00
6200;BME280;3133;43.214;27.906;2023-08-17T02:45:09;100509.19;;;25.52;100.00
6200;BME280;3133;43.214;27.906;2023-08-17T02:47:37;100504.81;;;25.51;100.00
6200;BME280;3133;43.214;27.906;2023-08-17T02:50:05;100510.16;;;25.51;100.00
6200;BME280;3133;43.214;27.906;2023-08-17T02:52:32;100508.41;;;25.50;100.00
6200;BME280;3133;43.214;27.906;2023-08-17T02:54:59;100501.03;;;25.39;100.00
6200;BME280;3133;43.214;27.906;2023-08-17T02:57:26;100490.25;;;25.41;100.00
6200;BME280;3133;43.214;27.906;2023-08-17T02:59:53;100479.94;;;25.35;100.00
6200;BME280;3133;43.214;27.906;2023-08-17T03:02:19;100505.97;;;25.47;100.00
6200;BME280;3133;43.214;27.906;2023-08-17T03:04:48;100507.38;;;25.52;100.00
6200;BME280;3133;43.214;27.906;2023-08-17T03:07:14;100504.81;;;25.51;100.00
6200;BME280;3133;43.214;27.906;2023-08-17T03:09:41;100489.50;;;25.39;100.00
6200;BME280;3133;43.214;27.906;2023-08-17T03:12:08;100501.38;;;25.49;100.00
6200;BME280;3133;43.214;27.906;2023-08-17T03:14:35;100498.03;;;25.45;100.00
6200;BME280;3133;43.214;27.906;2023-08-17T03:17:02;100494.50;;;25.45;100.00
6200;BME280;3133;43.214;27.906;2023-08-17T03:19:29;100506.63;;;25.50;100.00
6200;BME280;3133;43.214;27.906;2023-08-17T03:21:57;100504.13;;;25.47;100.00
6200;BME280;3133;43.214;27.906;2023-08-17T03:24:25;100504.56;;;25.40;100.00
6200;BME280;3133;43.214;27.906;2023-08-17T03:26:52;100485.69;;;25.29;100.00
6200;BME280;3133;43.214;27.906;2023-08-17T03:29:19;100504.00;;;25.35;100.00
6200;BME280;3133;43.214;27.906;2023-08-17T03:31:45;100510.09;;;25.37;100.00
6200;BME280;3133;43.214;27.906;2023-08-17T03:34:12;100516.41;;;25.36;100.00
6200;BME280;3133;43.214;27.906;2023-08-17T03:36:39;100494.63;;;25.13;100.00
6200;BME280;3133;43.214;27.906;2023-08-17T03:39:07;100516.97;;;25.27;100.00
6200;BME280;3133;43.214;27.906;2023-08-17T03:41:35;100498.44;;;25.24;100.00
6200;BME280;3133;43.214;27.906;2023-08-17T03:44:03;100516.69;;;25.31;100.00
6200;BME280;3133;43.214;27.906;2023-08-17T03:46:31;100524.59;;;25.33;100.00
6200;BME280;3133;43.214;27.906;2023-08-17T03:48:58;100514.66;;;25.35;100.00
6200;BME280;3133;43.214;27.906;2023-08-17T03:51:25;100510.19;;;25.21;100.00
6200;BME280;3133;43.214;27.906;2023-08-17T03:53:51;100501.59;;;25.16;100.00
6200;BME280;3133;43.214;27.906;2023-08-17T03:56:20;100541.84;;;25.27;100.00
6200;BME280;3133;43.214;27.906;2023-08-17T03:58:47;100527.75;;;25.25;100.00
6200;BME280;3133;43.214;27.906;2023-08-17T04:01:13;100542.13;;;25.37;100.00
6200;BME280;3133;43.214;27.906;2023-08-17T04:03:40;100551.53;;;25.44;100.00
6200;BME280;3133;43.214;27.906;2023-08-17T04:06:07;100553.19;;;25.46;100.00
6200;BME280;3133;43.214;27.906;2023-08-17T04:08:35;100544.97;;;25.49;100.00
6200;BME280;3133;43.214;27.906;2023-08-17T04:11:03;100547.47;;;25.52;100.00
6200;BME280;3133;43.214;27.906;2023-08-17T04:13:31;100552.25;;;25.61;100.00
6200;BME280;3133;43.214;27.906;2023-08-17T04:15:58;100547.38;;;25.68;100.00
6200;BME280;3133;43.214;27.906;2023-08-17T04:18:25;100525.41;;;25.63;100.00
6200;BME280;3133;43.214;27.906;2023-08-17T04:20:52;100479.56;;;25.41;100.00
6200;BME280;3133;43.214;27.906;2023-08-17T04:23:19;100547.59;;;25.79;100.00
6200;BME280;3133;43.214;27.906;2023-08-17T04:25:46;100549.38;;;25.78;100.00
6200;BME280;3133;43.214;27.906;2023-08-17T04:28:17;100527.81;;;25.67;100.00
6200;BME280;3133;43.214;27.906;2023-08-17T04:30:50;100554.16;;;25.88;100.00
6200;BME280;3133;43.214;27.906;2023-08-17T04:33:17;100501.75;;;25.57;100.00
6200;BME280;3133;43.214;27.906;2023-08-17T04:35:46;100540.41;;;25.79;100.00
6200;BME280;3133;43.214;27.906;2023-08-17T04:38:14;100559.59;;;26.00;100.00
6200;BME280;3133;43.214;27.906;2023-08-17T04:40:40;100535.25;;;25.91;100.00
6200;BME280;3133;43.214;27.906;2023-08-17T04:43:09;100529.72;;;25.94;100.00
6200;BME280;3133;43.214;27.906;2023-08-17T04:45:36;100552.06;;;26.07;100.00
6200;BME280;3133;43.214;27.906;2023-08-17T04:48:06;100551.78;;;26.11;100.00
6200;BME280;3133;43.214;27.906;2023-08-17T04:50:33;100525.13;;;26.10;100.00
6200;BME280;3133;43.214;27.906;2023-08-17T04:52:59;100554.50;;;26.38;100.00
6200;BME280;3133;43.214;27.906;2023-08-17T04:55:26;100528.91;;;26.34;100.00
6200;BME280;3133;43.214;27.906;2023-08-17T04:57:53;100557.81;;;26.55;100.00
6200;BME280;3133;43.214;27.906;2023-08-17T05:00:20;100562.94;;;26.73;100.00
6200;BME280;3133;43.214;27.906;2023-08-17T05:02:53;100547.34;;;26.79;100.00
6200;BME280;3133;43.214;27.906;2023-08-17T05:05:21;100552.63;;;26.93;100.00
6200;BME280;3133;43.214;27.906;2023-08-17T05:07:48;100547.50;;;27.03;100.00
6200;BME280;3133;43.214;27.906;2023-08-17T05:10:15;100533.88;;;26.93;100.00
6200;BME280;3133;43.214;27.906;2023-08-17T05:12:42;100543.47;;;27.10;100.00
6200;BME280;3133;43.214;27.906;2023-08-17T05:15:09;100540.88;;;27.21;100.00
6200;BME280;3133;43.214;27.906;2023-08-17T05:17:36;100449.63;;;26.72;100.00
6200;BME280;3133;43.214;27.906;2023-08-17T05:20:04;100541.31;;;27.27;100.00
6200;BME280;3133;43.214;27.906;2023-08-17T05:22:34;100532.81;;;27.35;100.00
6200;BME280;3133;43.214;27.906;2023-08-17T05:25:02;100535.19;;;27.40;100.00
6200;BME280;3133;43.214;27.906;2023-08-17T05:27:29;100544.28;;;27.37;100.00
6200;BME280;3133;43.214;27.906;2023-08-17T05:29:56;100493.53;;;27.09;100.00
6200;BME280;3133;43.214;27.906;2023-08-17T05:32:23;100545.66;;;27.43;100.00
6200;BME280;3133;43.214;27.906;2023-08-17T05:34:51;100542.91;;;27.44;100.00
6200;BME280;3133;43.214;27.906;2023-08-17T05:37:18;100540.00;;;27.47;100.00
6200;BME280;3133;43.214;27.906;2023-08-17T05:39:46;100537.09;;;27.50;100.00
6200;BME280;3133;43.214;27.906;2023-08-17T05:42:13;100531.31;;;27.56;100.00
6200;BME280;3133;43.214;27.906;2023-08-17T05:44:40;100551.25;;;27.77;100.00
6200;BME280;3133;43.214;27.906;2023-08-17T05:47:07;100533.22;;;27.79;100.00
6200;BME280;3133;43.214;27.906;2023-08-17T05:49:34;100539.88;;;27.86;100.00
6200;BME280;3133;43.214;27.906;2023-08-17T05:52:01;100550.81;;;28.08;100.00
6200;BME280;3133;43.214;27.906;2023-08-17T05:54:28;100545.22;;;28.12;100.00
6200;BME280;3133;43.214;27.906;2023-08-17T05:56:56;100549.47;;;28.27;100.00
6200;BME280;3133;43.214;27.906;2023-08-17T05:59:23;100543.50;;;28.23;100.00
6200;BME280;3133;43.214;27.906;2023-08-17T06:01:50;100553.81;;;28.53;100.00
6200;BME280;3133;43.214;27.906;2023-08-17T06:04:17;100544.88;;;28.65;100.00
6200;BME280;3133;43.214;27.906;2023-08-17T06:06:45;100541.09;;;28.91;100.00
6200;BME280;3133;43.214;27.906;2023-08-17T06:09:12;100541.34;;;28.88;100.00
6200;BME280;3133;43.214;27.906;2023-08-17T06:11:39;100518.53;;;28.70;100.00
6200;BME280;3133;43.214;27.906;2023-08-17T06:14:08;100544.72;;;28.43;100.00
6200;BME280;3133;43.214;27.906;2023-08-17T06:16:34;100517.09;;;28.17;100.00
6200;BME280;3133;43.214;27.906;2023-08-17T06:19:02;100543.31;;;28.37;100.00
6200;BME280;3133;43.214;27.906;2023-08-17T06:21:29;100507.19;;;28.30;100.00
6200;BME280;3133;43.214;27.906;2023-08-17T06:23:55;100544.66;;;28.55;100.00
6200;BME280;3133;43.214;27.906;2023-08-17T06:26:22;100510.84;;;28.53;100.00
6200;BME280;3133;43.214;27.906;2023-08-17T06:28:49;100545.22;;;28.60;100.00
6200;BME280;3133;43.214;27.906;2023-08-17T06:31:17;100547.91;;;28.60;100.00
6200;BME280;3133;43.214;27.906;2023-08-17T06:33:45;100524.84;;;28.58;100.00
6200;BME280;3133;43.214;27.906;2023-08-17T06:36:11;100560.06;;;29.01;100.00
6200;BME280;3133;43.214;27.906;2023-08-17T06:38:41;100556.50;;;29.24;100.00
6200;BME280;3133;43.214;27.906;2023-08-17T06:41:08;100544.03;;;29.23;100.00
6200;BME280;3133;43.214;27.906;2023-08-17T06:43:35;100452.41;;;28.69;100.00
6200;BME280;3133;43.214;27.906;2023-08-17T06:46:02;100543.69;;;29.27;100.00
6200;BME280;3133;43.214;27.906;2023-08-17T06:48:31;100416.03;;;28.52;100.00
6200;BME280;3133;43.214;27.906;2023-08-17T06:50:58;100557.22;;;29.61;100.00
6200;BME280;3133;43.214;27.906;2023-08-17T06:53:25;100520.53;;;29.59;100.00
6200;BME280;3133;43.214;27.906;2023-08-17T06:55:52;100544.53;;;30.07;100.00
6200;BME280;3133;43.214;27.906;2023-08-17T06:58:19;100549.94;;;29.96;100.00
6200;BME280;3133;43.214;27.906;2023-08-17T07:00:46;100459.91;;;29.55;100.00
6200;BME280;3133;43.214;27.906;2023-08-17T07:03:13;100494.16;;;29.98;100.00
6200;BME280;3133;43.214;27.906;2023-08-17T07:05:41;100552.38;;;30.10;100.00
6200;BME280;3133;43.214;27.906;2023-08-17T07:08:08;100542.84;;;30.17;100.00
6200;BME280;3133;43.214;27.906;2023-08-17T07:10:35;100531.78;;;30.42;100.00
6200;BME280;3133;43.214;27.906;2023-08-17T07:13:02;100469.09;;;29.97;100.00
6200;BME280;3133;43.214;27.906;2023-08-17T07:15:29;100580.88;;;30.12;100.00
6200;BME280;3133;43.214;27.906;2023-08-17T07:17:56;100584.53;;;30.11;100.00
6200;BME280;3133;43.214;27.906;2023-08-17T07:20:23;100572.19;;;29.76;100.00
6200;BME280;3133;43.214;27.906;2023-08-17T07:22:51;100587.59;;;30.07;100.00
6200;BME280;3133;43.214;27.906;2023-08-17T07:25:18;100564.13;;;29.87;100.00
6200;BME280;3133;43.214;27.906;2023-08-17T07:27:45;100575.13;;;29.95;100.00
6200;BME280;3133;43.214;27.906;2023-08-17T07:30:13;100583.66;;;30.11;100.00
6200;BME280;3133;43.214;27.906;2023-08-17T07:32:39;100594.44;;;29.78;100.00
6200;BME280;3133;43.214;27.906;2023-08-17T07:35:07;100596.78;;;29.93;100.00
6200;BME280;3133;43.214;27.906;2023-08-17T07:37:34;100596.66;;;30.17;100.00
6200;BME280;3133;43.214;27.906;2023-08-17T07:40:05;100516.41;;;29.78;100.00
6200;BME280;3133;43.214;27.906;2023-08-17T07:42:35;100486.94;;;29.87;100.00
6200;BME280;3133;43.214;27.906;2023-08-17T07:45:03;100600.22;;;30.40;100.00
6200;BME280;3133;43.214;27.906;2023-08-17T07:47:33;100549.56;;;29.89;100.00
6200;BME280;3133;43.214;27.906;2023-08-17T07:50:03;100619.91;;;29.96;100.00
6200;BME280;3133;43.214;27.906;2023-08-17T07:52:30;100603.25;;;29.91;100.00
6200;BME280;3133;43.214;27.906;2023-08-17T07:54:57;100598.72;;;30.13;100.00
6200;BME280;3133;43.214;27.906;2023-08-17T07:57:26;100576.72;;;29.86;100.00
6200;BME280;3133;43.214;27.906;2023-08-17T07:59:55;100585.75;;;29.96;100.00
6200;BME280;3133;43.214;27.906;2023-08-17T08:02:22;100586.25;;;30.12;100.00
6200;BME280;3133;43.214;27.906;2023-08-17T08:04:52;100588.13;;;30.34;100.00
6200;BME280;3133;43.214;27.906;2023-08-17T08:07:19;100603.16;;;30.25;100.00
6200;BME280;3133;43.214;27.906;2023-08-17T08:09:46;100609.03;;;30.30;100.00
6200;BME280;3133;43.214;27.906;2023-08-17T08:12:12;100546.38;;;29.95;100.00
6200;BME280;3133;43.214;27.906;2023-08-17T08:14:41;100587.75;;;30.39;100.00
6200;BME280;3133;43.214;27.906;2023-08-17T08:17:07;100579.91;;;30.47;100.00
6200;BME280;3133;43.214;27.906;2023-08-17T08:19:34;100584.00;;;30.73;100.00
6200;BME280;3133;43.214;27.906;2023-08-17T08:22:01;100510.91;;;30.12;100.00
6200;BME280;3133;43.214;27.906;2023-08-17T08:24:28;100574.75;;;30.10;100.00
6200;BME280;3133;43.214;27.906;2023-08-17T08:26:59;100587.03;;;30.37;100.00
6200;BME280;3133;43.214;27.906;2023-08-17T08:29:27;100539.25;;;30.27;100.00
6200;BME280;3133;43.214;27.906;2023-08-17T08:31:56;100533.28;;;30.13;100.00
6200;BME280;3133;43.214;27.906;2023-08-17T08:34:25;100594.09;;;30.38;100.00
6200;BME280;3133;43.214;27.906;2023-08-17T08:36:52;100559.94;;;30.05;100.00
6200;BME280;3133;43.214;27.906;2023-08-17T08:39:21;100459.09;;;29.09;100.00
6200;BME280;3133;43.214;27.906;2023-08-17T08:41:49;100561.66;;;29.84;100.00
6200;BME280;3133;43.214;27.906;2023-08-17T08:44:17;100495.00;;;29.65;100.00
6200;BME280;3133;43.214;27.906;2023-08-17T08:46:54;100578.56;;;30.19;100.00
6200;BME280;3133;43.214;27.906;2023-08-17T08:49:28;100584.78;;;30.42;100.00
6200;BME280;3133;43.214;27.906;2023-08-17T08:51:59;100597.75;;;30.25;100.00
6200;BME280;3133;43.214;27.906;2023-08-17T08:54:43;100583.06;;;30.18;100.00
6200;BME280;3133;43.214;27.906;2023-08-17T08:57:13;100489.09;;;29.49;100.00
6200;BME280;3133;43.214;27.906;2023-08-17T08:59:57;100529.25;;;29.85;100.00
6200;BME280;3133;43.214;27.906;2023-08-17T09:02:27;100478.53;;;29.81;100.00
6200;BME280;3133;43.214;27.906;2023-08-17T09:05:10;100585.75;;;30.18;100.00
6200;BME280;3133;43.214;27.906;2023-08-17T09:07:37;100590.41;;;30.16;100.00
6200;BME280;3133;43.214;27.906;2023-08-17T09:10:05;100554.69;;;30.25;100.00
6200;BME280;3133;43.214;27.906;2023-08-17T09:12:32;100597.03;;;30.35;100.00
6200;BME280;3133;43.214;27.906;2023-08-17T09:14:59;100571.22;;;30.10;100.00
6200;BME280;3133;43.214;27.906;2023-08-17T09:17:26;100602.53;;;30.44;100.00
6200;BME280;3133;43.214;27.906;2023-08-17T09:19:54;100602.91;;;30.40;100.00
6200;BME280;3133;43.214;27.906;2023-08-17T09:22:26;100604.00;;;30.48;100.00
6200;BME280;3133;43.214;27.906;2023-08-17T09:25:11;100599.34;;;30.17;100.00
6200;BME280;3133;43.214;27.906;2023-08-17T09:27:38;100554.78;;;30.24;100.00
6200;BME280;3133;43.214;27.906;2023-08-17T09:30:08;100547.34;;;30.05;100.00
6200;BME280;3133;43.214;27.906;2023-08-17T09:32:36;100607.44;;;30.28;100.00
6200;BME280;3133;43.214;27.906;2023-08-17T09:35:04;100595.81;;;30.39;100.00
6200;BME280;3133;43.214;27.906;2023-08-17T09:37:33;100592.63;;;30.56;100.00
6200;BME280;3133;43.214;27.906;2023-08-17T09:40:00;100590.81;;;30.45;100.00
6200;BME280;3133;43.214;27.906;2023-08-17T09:42:28;100586.88;;;30.49;100.00
6200;BME280;3133;43.214;27.906;2023-08-17T09:44:54;100571.53;;;30.50;100.00
6200;BME280;3133;43.214;27.906;2023-08-17T09:47:22;100580.69;;;30.69;100.00
6200;BME280;3133;43.214;27.906;2023-08-17T09:49:49;100582.63;;;30.78;100.00
6200;BME280;3133;43.214;27.906;2023-08-17T09:52:16;100578.00;;;30.58;100.00
6200;BME280;3133;43.214;27.906;2023-08-17T09:54:45;100578.00;;;30.58;100.00
6200;BME280;3133;43.214;27.906;2023-08-17T09:57:13;100487.06;;;29.97;100.00
6200;BME280;3133;43.214;27.906;2023-08-17T09:59:40;100593.72;;;30.42;100.00
6200;BME280;3133;43.214;27.906;2023-08-17T10:02:14;100615.25;;;30.53;100.00
6200;BME280;3133;43.214;27.906;2023-08-17T10:04:44;100542.59;;;30.31;100.00
6200;BME280;3133;43.214;27.906;2023-08-17T10:07:14;100565.75;;;30.65;100.00
6200;BME280;3133;43.214;27.906;2023-08-17T10:09:45;100565.06;;;30.52;100.00
6200;BME280;3133;43.214;27.906;2023-08-17T10:12:15;100566.31;;;30.37;100.00
6200;BME280;3133;43.214;27.906;2023-08-17T10:14:49;100586.97;;;30.48;100.00
6200;BME280;3133;43.214;27.906;2023-08-17T10:17:25;100575.75;;;30.32;100.00
6200;BME280;3133;43.214;27.906;2023-08-17T10:19:54;100598.88;;;30.45;100.00
6200;BME280;3133;43.214;27.906;2023-08-17T10:22:28;100591.63;;;30.57;100.00
6200;BME280;3133;43.214;27.906;2023-08-17T10:25:00;100600.53;;;30.79;100.00
6200;BME280;3133;43.214;27.906;2023-08-17T10:27:27;100599.28;;;30.94;100.00
6200;BME280;3133;43.214;27.906;2023-08-17T10:29:55;100604.03;;;30.80;100.00
6200;BME280;3133;43.214;27.906;2023-08-17T10:32:23;100574.13;;;30.29;100.00
6200;BME280;3133;43.214;27.906;2023-08-17T10:34:51;100591.28;;;30.28;100.00
6200;BME280;3133;43.214;27.906;2023-08-17T10:37:18;100600.81;;;30.21;100.00
6200;BME280;3133;43.214;27.906;2023-08-17T10:39:46;100547.00;;;29.99;100.00
6200;BME280;3133;43.214;27.906;2023-08-17T10:42:14;100572.06;;;30.33;100.00
6200;BME280;3133;43.214;27.906;2023-08-17T10:44:44;100591.88;;;30.54;100.00
6200;BME280;3133;43.214;27.906;2023-08-17T10:47:23;100569.00;;;30.37;100.00
6200;BME280;3133;43.214;27.906;2023-08-17T10:49:51;100589.78;;;30.57;100.00
6200;BME280;3133;43.214;27.906;2023-08-17T10:52:26;100528.50;;;30.16;100.00
6200;BME280;3133;43.214;27.906;2023-08-17T10:54:53;100593.44;;;30.56;100.00
6200;BME280;3133;43.214;27.906;2023-08-17T10:57:28;100568.38;;;30.22;100.00
6200;BME280;3133;43.214;27.906;2023-08-17T11:00:15;100559.94;;;30.16;100.00
6200;BME280;3133;43.214;27.906;2023-08-17T11:02:50;100557.97;;;30.29;100.00
6200;BME280;3133;43.214;27.906;2023-08-17T11:05:34;100579.16;;;30.22;100.00
6200;BME280;3133;43.214;27.906;2023-08-17T11:08:01;100583.56;;;30.23;100.00
6200;BME280;3133;43.214;27.906;2023-08-17T11:10:29;100590.41;;;30.16;100.00
6200;BME280;3133;43.214;27.906;2023-08-17T11:12:58;100589.81;;;30.02;100.00
6200;BME280;3133;43.214;27.906;2023-08-17T11:15:34;100534.03;;;29.82;100.00
6200;BME280;3133;43.214;27.906;2023-08-17T11:18:04;100585.25;;;30.24;100.00
6200;BME280;3133;43.214;27.906;2023-08-17T11:20:32;100582.09;;;30.30;100.00
6200;BME280;3133;43.214;27.906;2023-08-17T11:22:59;100486.44;;;29.71;100.00
6200;BME280;3133;43.214;27.906;2023-08-17T11:25:26;100575.00;;;30.18;100.00
6200;BME280;3133;43.214;27.906;2023-08-17T11:27:54;100536.34;;;29.97;100.00
6200;BME280;3133;43.214;27.906;2023-08-17T11:30:22;100544.91;;;30.02;100.00
6200;BME280;3133;43.214;27.906;2023-08-17T11:32:50;100510.19;;;29.77;100.00
6200;BME280;3133;43.214;27.906;2023-08-17T11:35:19;100515.78;;;29.85;100.00
6200;BME280;3133;43.214;27.906;2023-08-17T11:37:47;100566.31;;;30.04;100.00
6200;BME280;3133;43.214;27.906;2023-08-17T11:40:15;100587.34;;;30.21;100.00
6200;BME280;3133;43.214;27.906;2023-08-17T11:42:43;100583.22;;;30.17;100.00
6200;BME280;3133;43.214;27.906;2023-08-17T11:45:10;100576.31;;;30.24;100.00
6200;BME280;3133;43.214;27.906;2023-08-17T11:47:39;100569.28;;;30.34;100.00
6200;BME280;3133;43.214;27.906;2023-08-17T11:50:08;100540.38;;;30.03;100.00
6200;BME280;3133;43.214;27.906;2023-08-17T11:52:35;100479.47;;;29.69;100.00
6200;BME280;3133;43.214;27.906;2023-08-17T11:55:03;100574.25;;;30.27;100.00
6200;BME280;3133;43.214;27.906;2023-08-17T11:57:31;100571.31;;;30.53;100.00
6200;BME280;3133;43.214;27.906;2023-08-17T11:59:59;100512.00;;;30.21;100.00
6200;BME280;3133;43.214;27.906;2023-08-17T12:02:27;100570.78;;;30.70;100.00
6200;BME280;3133;43.214;27.906;2023-08-17T12:04:56;100586.00;;;30.60;100.00
6200;BME280;3133;43.214;27.906;2023-08-17T12:07:25;100574.88;;;30.53;100.00
6200;BME280;3133;43.214;27.906;2023-08-17T12:09:52;100563.88;;;30.12;100.00
6200;BME280;3133;43.214;27.906;2023-08-17T12:12:21;100560.69;;;30.40;100.00
6200;BME280;3133;43.214;27.906;2023-08-17T12:14:48;100569.50;;;30.42;100.00
6200;BME280;3133;43.214;27.906;2023-08-17T12:17:16;100582.59;;;30.36;100.00
6200;BME280;3133;43.214;27.906;2023-08-17T12:19:44;100556.16;;;30.18;100.00
6200;BME280;3133;43.214;27.906;2023-08-17T12:22:13;100562.16;;;30.44;100.00
6200;BME280;3133;43.214;27.906;2023-08-17T12:24:40;100550.66;;;30.42;100.00
6200;BME280;3133;43.214;27.906;2023-08-17T12:27:07;100568.03;;;30.49;100.00
6200;BME280;3133;43.214;27.906;2023-08-17T12:29:34;100572.44;;;30.39;100.00
6200;BME280;3133;43.214;27.906;2023-08-17T12:32:01;100519.06;;;30.11;100.00
6200;BME280;3133;43.214;27.906;2023-08-17T12:34:28;100533.75;;;30.18;100.00
6200;BME280;3133;43.214;27.906;2023-08-17T12:36:55;100566.06;;;30.51;100.00
6200;BME280;3133;43.214;27.906;2023-08-17T12:39:24;100579.44;;;30.73;100.00
6200;BME280;3133;43.214;27.906;2023-08-17T12:41:51;100570.94;;;30.57;100.00
6200;BME280;3133;43.214;27.906;2023-08-17T12:44:18;100571.38;;;30.73;100.00
6200;BME280;3133;43.214;27.906;2023-08-17T12:46:45;100580.59;;;30.60;100.00
6200;BME280;3133;43.214;27.906;2023-08-17T12:49:11;100550.34;;;30.56;100.00
6200;BME280;3133;43.214;27.906;2023-08-17T12:51:38;100513.31;;;30.49;100.00
6200;BME280;3133;43.214;27.906;2023-08-17T12:54:05;100570.06;;;30.57;100.00
6200;BME280;3133;43.214;27.906;2023-08-17T12:56:34;100560.31;;;30.45;100.00